sensor_id;sensor_type;location;lat;lon;timestamp;temperature;humidity
6956;DHT22;50345;51.136;16.886;2023-05-09T00:00:14;7.90;99.90
6956;DHT22;50345;51.136;16.886;2023-05-09T00:02:40;7.80;99.90
6956;DHT22;50345;51.136;16.886;2023-05-09T00:05:10;7.70;99.90
6956;DHT22;50345;51.136;16.886;2023-05-09T00:07:36;7.70;99.90
6956;DHT22;50345;51.136;16.886;2023-05-09T00:10:02;7.70;99.90
6956;DHT22;50345;51.136;16.886;2023-05-09T00:12:28;7.70;99.90
6956;DHT22;50345;51.136;16.886;2023-05-09T00:14:54;7.60;99.90
6956;DHT22;50345;51.136;16.886;2023-05-09T00:17:21;7.60;99.90
6956;DHT22;50345;51.136;16.886;2023-05-09T00:19:48;7.60;99.90
6956;DHT22;50345;51.136;16.886;2023-05-09T00:22:15;7.60;99.90
6956;DHT22;50345;51.136;16.886;2023-05-09T00:24:41;7.60;99.90
6956;DHT22;50345;51.136;16.886;2023-05-09T00:27:07;7.60;99.90
6956;DHT22;50345;51.136;16.886;2023-05-09T00:29:32;7.60;99.90
6956;DHT22;50345;51.136;16.886;2023-05-09T00:31:58;7.60;99.90
6956;DHT22;50345;51.136;16.886;2023-05-09T00:34:23;7.60;99.90
6956;DHT22;50345;51.136;16.886;2023-05-09T00:36:49;7.60;99.90
6956;DHT22;50345;51.136;16.886;2023-05-09T00:39:15;7.60;99.90
6956;DHT22;50345;51.136;16.886;2023-05-09T00:41:40;7.60;99.90
6956;DHT22;50345;51.136;16.886;2023-05-09T00:44:06;7.70;99.90
6956;DHT22;50345;51.136;16.886;2023-05-09T00:46:32;7.70;99.90
6956;DHT22;50345;51.136;16.886;2023-05-09T00:48:57;7.70;99.90
6956;DHT22;50345;51.136;16.886;2023-05-09T00:51:23;7.70;99.90
6956;DHT22;50345;51.136;16.886;2023-05-09T00:53:50;7.70;99.90
6956;DHT22;50345;51.136;16.886;2023-05-09T00:56:16;7.70;99.90
6956;DHT22;50345;51.136;16.886;2023-05-09T00:58:41;7.70;99.90
6956;DHT22;50345;51.136;16.886;2023-05-09T01:01:08;7.70;99.90
6956;DHT22;50345;51.136;16.886;2023-05-09T01:03:34;7.70;99.90
6956;DHT22;50345;51.136;16.886;2023-05-09T01:11:58;7.70;99.90
6956;DHT22;50345;51.136;16.886;2023-05-09T01:14:41;7.70;99.90
6956;DHT22;50345;51.136;16.886;2023-05-09T01:17:26;7.70;99.90
6956;DHT22;50345;51.136;16.886;2023-05-09T01:20:04;7.70;99.90
6956;DHT22;50345;51.136;16.886;2023-05-09T01:22:37;7.70;99.90
6956;DHT22;50345;51.136;16.886;2023-05-09T01:27:57;7.60;99.90
6956;DHT22;50345;51.136;16.886;2023-05-09T01:30:24;7.60;99.90
6956;DHT22;50345;51.136;16.886;2023-05-09T01:32:53;7.50;99.90
6956;DHT22;50345;51.136;16.886;2023-05-09T01:35:22;7.50;99.90
6956;DHT22;50345;51.136;16.886;2023-05-09T01:37:50;7.50;99.90
6956;DHT22;50345;51.136;16.886;2023-05-09T01:40:19;7.50;99.90
6956;DHT22;50345;51.136;16.886;2023-05-09T01:45:21;7.40;99.90
6956;DHT22;50345;51.136;16.886;2023-05-09T01:47:48;7.40;99.90
6956;DHT22;50345;51.136;16.886;2023-05-09T01:50:16;7.40;99.90
6956;DHT22;50345;51.136;16.886;2023-05-09T01:52:43;7.40;99.90
6956;DHT22;50345;51.136;16.886;2023-05-09T01:55:12;7.40;99.90
6956;DHT22;50345;51.136;16.886;2023-05-09T01:57:39;7.30;99.90
6956;DHT22;50345;51.136;16.886;2023-05-09T02:00:07;7.30;99.90
6956;DHT22;50345;51.136;16.886;2023-05-09T02:02:35;7.30;99.90
6956;DHT22;50345;51.136;16.886;2023-05-09T02:05:01;7.30;99.90
6956;DHT22;50345;51.136;16.886;2023-05-09T02:07:27;7.20;99.90
6956;DHT22;50345;51.136;16.886;2023-05-09T02:09:54;7.20;99.90
6956;DHT22;50345;51.136;16.886;2023-05-09T02:12:23;7.10;99.90
6956;DHT22;50345;51.136;16.886;2023-05-09T02:14:49;7.10;99.90
6956;DHT22;50345;51.136;16.886;2023-05-09T02:17:15;7.00;99.90
6956;DHT22;50345;51.136;16.886;2023-05-09T02:19:42;7.00;99.90
6956;DHT22;50345;51.136;16.886;2023-05-09T02:22:08;6.90;99.90
6956;DHT22;50345;51.136;16.886;2023-05-09T02:24:35;6.90;99.90
6956;DHT22;50345;51.136;16.886;2023-05-09T02:27:04;6.80;99.90
6956;DHT22;50345;51.136;16.886;2023-05-09T02:29:35;6.80;99.90
6956;DHT22;50345;51.136;16.886;2023-05-09T02:32:11;6.80;99.90
6956;DHT22;50345;51.136;16.886;2023-05-09T02:34:38;6.80;99.90
6956;DHT22;50345;51.136;16.886;2023-05-09T02:37:06;6.80;99.90
6956;DHT22;50345;51.136;16.886;2023-05-09T02:39:32;6.70;99.90
6956;DHT22;50345;51.136;16.886;2023-05-09T02:42:05;6.70;99.90
6956;DHT22;50345;51.136;16.886;2023-05-09T02:44:31;6.70;99.90
6956;DHT22;50345;51.136;16.886;2023-05-09T02:46:57;6.70;99.90
6956;DHT22;50345;51.136;16.886;2023-05-09T02:49:23;6.60;99.90
6956;DHT22;50345;51.136;16.886;2023-05-09T02:51:48;6.60;99.90
6956;DHT22;50345;51.136;16.886;2023-05-09T02:54:14;6.60;99.90
6956;DHT22;50345;51.136;16.886;2023-05-09T02:56:39;6.60;99.90
6956;DHT22;50345;51.136;16.886;2023-05-09T02:59:05;6.60;99.90
6956;DHT22;50345;51.136;16.886;2023-05-09T03:01:31;6.50;99.90
6956;DHT22;50345;51.136;16.886;2023-05-09T03:03:57;6.50;99.90
6956;DHT22;50345;51.136;16.886;2023-05-09T03:06:22;6.40;99.90
6956;DHT22;50345;51.136;16.886;2023-05-09T03:08:48;6.40;99.90
6956;DHT22;50345;51.136;16.886;2023-05-09T03:11:15;6.30;99.90
6956;DHT22;50345;51.136;16.886;2023-05-09T03:13:40;6.30;99.90
6956;DHT22;50345;51.136;16.886;2023-05-09T03:16:06;6.30;99.90
6956;DHT22;50345;51.136;16.886;2023-05-09T03:18:31;6.30;99.90
6956;DHT22;50345;51.136;16.886;2023-05-09T03:20:57;6.20;99.90
6956;DHT22;50345;51.136;16.886;2023-05-09T03:23:22;6.20;99.90
6956;DHT22;50345;51.136;16.886;2023-05-09T03:25:48;6.20;99.90
6956;DHT22;50345;51.136;16.886;2023-05-09T03:28:14;6.20;99.90
6956;DHT22;50345;51.136;16.886;2023-05-09T03:30:39;6.20;99.90
6956;DHT22;50345;51.136;16.886;2023-05-09T03:33:06;6.20;99.90
6956;DHT22;50345;51.136;16.886;2023-05-09T03:35:32;6.20;99.90
6956;DHT22;50345;51.136;16.886;2023-05-09T03:37:57;6.20;99.90
6956;DHT22;50345;51.136;16.886;2023-05-09T03:40:23;6.10;99.90
6956;DHT22;50345;51.136;16.886;2023-05-09T03:42:48;6.10;99.90
6956;DHT22;50345;51.136;16.886;2023-05-09T03:45:14;6.20;99.90
6956;DHT22;50345;51.136;16.886;2023-05-09T03:47:39;6.20;99.90
6956;DHT22;50345;51.136;16.886;2023-05-09T03:50:05;6.20;99.90
6956;DHT22;50345;51.136;16.886;2023-05-09T03:52:32;6.20;99.90
6956;DHT22;50345;51.136;16.886;2023-05-09T03:54:58;6.20;99.90
6956;DHT22;50345;51.136;16.886;2023-05-09T03:57:23;6.30;99.90
6956;DHT22;50345;51.136;16.886;2023-05-09T03:59:49;6.30;99.90
6956;DHT22;50345;51.136;16.886;2023-05-09T04:02:14;6.40;99.90
6956;DHT22;50345;51.136;16.886;2023-05-09T04:04:40;6.40;99.90
6956;DHT22;50345;51.136;16.886;2023-05-09T04:07:06;6.50;99.90
6956;DHT22;50345;51.136;16.886;2023-05-09T04:09:31;6.50;99.90
6956;DHT22;50345;51.136;16.886;2023-05-09T04:11:57;6.60;99.90
6956;DHT22;50345;51.136;16.886;2023-05-09T04:14:22;6.70;99.90
6956;DHT22;50345;51.136;16.886;2023-05-09T04:16:48;6.80;99.90
6956;DHT22;50345;51.136;16.886;2023-05-09T04:19:13;6.90;99.90
6956;DHT22;50345;51.136;16.886;2023-05-09T04:21:39;7.00;99.90
6956;DHT22;50345;51.136;16.886;2023-05-09T04:24:05;7.00;99.90
6956;DHT22;50345;51.136;16.886;2023-05-09T04:26:30;7.10;99.90
6956;DHT22;50345;51.136;16.886;2023-05-09T04:28:56;7.20;99.90
6956;DHT22;50345;51.136;16.886;2023-05-09T04:31:21;7.30;99.90
6956;DHT22;50345;51.136;16.886;2023-05-09T04:33:47;7.30;99.90
6956;DHT22;50345;51.136;16.886;2023-05-09T04:36:13;7.40;99.90
6956;DHT22;50345;51.136;16.886;2023-05-09T04:38:38;7.50;99.90
6956;DHT22;50345;51.136;16.886;2023-05-09T04:41:04;7.60;99.90
6956;DHT22;50345;51.136;16.886;2023-05-09T04:43:29;7.60;99.90
6956;DHT22;50345;51.136;16.886;2023-05-09T04:45:55;7.70;99.90
6956;DHT22;50345;51.136;16.886;2023-05-09T04:48:21;7.90;99.90
6956;DHT22;50345;51.136;16.886;2023-05-09T04:50:46;7.90;99.90
6956;DHT22;50345;51.136;16.886;2023-05-09T04:53:13;7.90;99.90
6956;DHT22;50345;51.136;16.886;2023-05-09T04:55:38;8.00;99.90
6956;DHT22;50345;51.136;16.886;2023-05-09T04:58:04;8.10;99.90
6956;DHT22;50345;51.136;16.886;2023-05-09T05:00:30;8.10;99.90
6956;DHT22;50345;51.136;16.886;2023-05-09T05:05:21;8.20;99.90
6956;DHT22;50345;51.136;16.886;2023-05-09T05:07:47;8.30;99.90
6956;DHT22;50345;51.136;16.886;2023-05-09T05:10:12;8.40;99.90
6956;DHT22;50345;51.136;16.886;2023-05-09T05:12:38;8.40;99.90
6956;DHT22;50345;51.136;16.886;2023-05-09T05:15:04;8.60;99.90
6956;DHT22;50345;51.136;16.886;2023-05-09T05:17:30;8.60;99.90
6956;DHT22;50345;51.136;16.886;2023-05-09T05:19:56;8.60;99.90
6956;DHT22;50345;51.136;16.886;2023-05-09T05:22:21;8.70;99.90
6956;DHT22;50345;51.136;16.886;2023-05-09T05:24:47;8.80;99.90
6956;DHT22;50345;51.136;16.886;2023-05-09T05:27:12;8.80;99.90
6956;DHT22;50345;51.136;16.886;2023-05-09T05:29:38;8.90;99.90
6956;DHT22;50345;51.136;16.886;2023-05-09T05:32:04;9.00;99.90
6956;DHT22;50345;51.136;16.886;2023-05-09T05:34:29;9.00;99.90
6956;DHT22;50345;51.136;16.886;2023-05-09T05:36:55;9.10;99.90
6956;DHT22;50345;51.136;16.886;2023-05-09T05:39:21;9.10;99.90
6956;DHT22;50345;51.136;16.886;2023-05-09T05:41:46;9.20;99.90
6956;DHT22;50345;51.136;16.886;2023-05-09T05:44:12;9.30;99.90
6956;DHT22;50345;51.136;16.886;2023-05-09T05:46:37;9.30;99.90
6956;DHT22;50345;51.136;16.886;2023-05-09T05:49:03;9.40;99.90
6956;DHT22;50345;51.136;16.886;2023-05-09T05:51:28;9.50;99.90
6956;DHT22;50345;51.136;16.886;2023-05-09T05:53:55;9.60;99.90
6956;DHT22;50345;51.136;16.886;2023-05-09T05:56:20;9.60;99.90
6956;DHT22;50345;51.136;16.886;2023-05-09T05:58:47;9.70;99.90
6956;DHT22;50345;51.136;16.886;2023-05-09T06:01:12;9.70;99.90
6956;DHT22;50345;51.136;16.886;2023-05-09T06:03:38;9.80;99.90
6956;DHT22;50345;51.136;16.886;2023-05-09T06:06:04;9.90;99.90
6956;DHT22;50345;51.136;16.886;2023-05-09T06:08:30;9.90;99.90
6956;DHT22;50345;51.136;16.886;2023-05-09T06:10:55;10.00;99.90
6956;DHT22;50345;51.136;16.886;2023-05-09T06:13:21;10.10;99.90
6956;DHT22;50345;51.136;16.886;2023-05-09T06:15:47;10.10;99.90
6956;DHT22;50345;51.136;16.886;2023-05-09T06:18:12;10.20;99.90
6956;DHT22;50345;51.136;16.886;2023-05-09T06:20:38;10.30;99.90
6956;DHT22;50345;51.136;16.886;2023-05-09T06:23:03;10.30;99.90
6956;DHT22;50345;51.136;16.886;2023-05-09T06:25:29;10.40;99.90
6956;DHT22;50345;51.136;16.886;2023-05-09T06:27:54;10.50;99.90
6956;DHT22;50345;51.136;16.886;2023-05-09T06:30:20;10.70;99.90
6956;DHT22;50345;51.136;16.886;2023-05-09T06:32:46;10.70;99.90
6956;DHT22;50345;51.136;16.886;2023-05-09T06:35:11;10.80;99.90
6956;DHT22;50345;51.136;16.886;2023-05-09T06:37:37;10.80;99.90
6956;DHT22;50345;51.136;16.886;2023-05-09T06:40:02;10.80;99.90
6956;DHT22;50345;51.136;16.886;2023-05-09T06:42:28;10.80;99.90
6956;DHT22;50345;51.136;16.886;2023-05-09T06:44:56;10.80;99.90
6956;DHT22;50345;51.136;16.886;2023-05-09T06:47:22;10.90;99.90
6956;DHT22;50345;51.136;16.886;2023-05-09T06:49:48;11.00;99.90
6956;DHT22;50345;51.136;16.886;2023-05-09T06:52:13;11.10;99.90
6956;DHT22;50345;51.136;16.886;2023-05-09T06:54:40;11.10;99.90
6956;DHT22;50345;51.136;16.886;2023-05-09T06:57:05;11.10;99.90
6956;DHT22;50345;51.136;16.886;2023-05-09T06:59:31;11.20;99.90
6956;DHT22;50345;51.136;16.886;2023-05-09T07:01:57;11.20;99.90
6956;DHT22;50345;51.136;16.886;2023-05-09T07:04:22;11.30;99.80
6956;DHT22;50345;51.136;16.886;2023-05-09T07:06:48;11.30;98.70
6956;DHT22;50345;51.136;16.886;2023-05-09T07:09:14;11.40;98.40
6956;DHT22;50345;51.136;16.886;2023-05-09T07:14:08;11.40;98.10
6956;DHT22;50345;51.136;16.886;2023-05-09T07:16:33;11.50;98.10
6956;DHT22;50345;51.136;16.886;2023-05-09T07:18:59;11.70;97.80
6956;DHT22;50345;51.136;16.886;2023-05-09T07:21:27;11.70;98.30
6956;DHT22;50345;51.136;16.886;2023-05-09T07:23:53;11.90;96.80
6956;DHT22;50345;51.136;16.886;2023-05-09T07:26:19;11.90;95.30
6956;DHT22;50345;51.136;16.886;2023-05-09T07:28:45;12.00;96.70
6956;DHT22;50345;51.136;16.886;2023-05-09T07:31:11;12.10;95.70
6956;DHT22;50345;51.136;16.886;2023-05-09T07:33:36;12.20;94.70
6956;DHT22;50345;51.136;16.886;2023-05-09T07:36:02;12.50;94.80
6956;DHT22;50345;51.136;16.886;2023-05-09T07:38:28;12.60;93.10
6956;DHT22;50345;51.136;16.886;2023-05-09T07:40:53;12.70;91.60
6956;DHT22;50345;51.136;16.886;2023-05-09T07:43:19;12.80;91.80
6956;DHT22;50345;51.136;16.886;2023-05-09T07:45:45;12.90;91.80
6956;DHT22;50345;51.136;16.886;2023-05-09T07:48:11;13.20;89.30
6956;DHT22;50345;51.136;16.886;2023-05-09T07:50:37;13.30;86.30
6956;DHT22;50345;51.136;16.886;2023-05-09T07:53:02;13.40;84.80
6956;DHT22;50345;51.136;16.886;2023-05-09T07:55:28;13.40;86.50
6956;DHT22;50345;51.136;16.886;2023-05-09T07:57:54;13.50;80.80
6956;DHT22;50345;51.136;16.886;2023-05-09T08:00:19;13.50;79.20
6956;DHT22;50345;51.136;16.886;2023-05-09T08:02:49;13.50;76.10
6956;DHT22;50345;51.136;16.886;2023-05-09T08:05:15;13.60;74.30
6956;DHT22;50345;51.136;16.886;2023-05-09T08:07:40;13.60;75.20
6956;DHT22;50345;51.136;16.886;2023-05-09T08:10:07;13.70;73.50
6956;DHT22;50345;51.136;16.886;2023-05-09T08:12:33;13.90;71.00
6956;DHT22;50345;51.136;16.886;2023-05-09T08:14:58;14.00;68.70
6956;DHT22;50345;51.136;16.886;2023-05-09T08:17:24;14.20;65.00
6956;DHT22;50345;51.136;16.886;2023-05-09T08:19:50;14.30;62.90
6956;DHT22;50345;51.136;16.886;2023-05-09T08:22:16;14.30;63.90
6956;DHT22;50345;51.136;16.886;2023-05-09T08:27:10;14.60;60.50
6956;DHT22;50345;51.136;16.886;2023-05-09T08:29:37;14.50;61.20
6956;DHT22;50345;51.136;16.886;2023-05-09T08:32:03;14.80;63.10
6956;DHT22;50345;51.136;16.886;2023-05-09T08:34:29;15.00;59.40
6956;DHT22;50345;51.136;16.886;2023-05-09T08:37:02;15.10;57.80
6956;DHT22;50345;51.136;16.886;2023-05-09T08:39:28;15.20;57.00
6956;DHT22;50345;51.136;16.886;2023-05-09T08:41:57;15.30;56.40
6956;DHT22;50345;51.136;16.886;2023-05-09T08:44:24;15.40;55.80
6956;DHT22;50345;51.136;16.886;2023-05-09T08:46:51;15.50;56.50
6956;DHT22;50345;51.136;16.886;2023-05-09T08:49:22;15.70;56.10
6956;DHT22;50345;51.136;16.886;2023-05-09T08:51:48;15.80;54.00
6956;DHT22;50345;51.136;16.886;2023-05-09T08:54:15;15.90;54.30
6956;DHT22;50345;51.136;16.886;2023-05-09T08:56:41;17.10;54.20
6956;DHT22;50345;51.136;16.886;2023-05-09T08:59:08;17.20;54.60
6956;DHT22;50345;51.136;16.886;2023-05-09T09:01:34;18.30;51.30
6956;DHT22;50345;51.136;16.886;2023-05-09T09:04:07;19.30;46.80
6956;DHT22;50345;51.136;16.886;2023-05-09T09:06:34;20.80;43.60
6956;DHT22;50345;51.136;16.886;2023-05-09T09:09:00;21.70;42.00
6956;DHT22;50345;51.136;16.886;2023-05-09T09:11:27;23.10;39.90
6956;DHT22;50345;51.136;16.886;2023-05-09T09:13:54;24.00;36.60
6956;DHT22;50345;51.136;16.886;2023-05-09T09:18:51;24.60;36.20
6956;DHT22;50345;51.136;16.886;2023-05-09T09:21:19;25.10;34.80
6956;DHT22;50345;51.136;16.886;2023-05-09T09:23:46;26.60;33.60
6956;DHT22;50345;51.136;16.886;2023-05-09T09:26:12;26.70;34.30
6956;DHT22;50345;51.136;16.886;2023-05-09T09:28:38;28.10;31.90
6956;DHT22;50345;51.136;16.886;2023-05-09T09:31:26;29.20;30.00
6956;DHT22;50345;51.136;16.886;2023-05-09T09:33:59;29.50;29.60
6956;DHT22;50345;51.136;16.886;2023-05-09T09:36:27;29.80;28.50
6956;DHT22;50345;51.136;16.886;2023-05-09T09:38:58;30.10;28.30
6956;DHT22;50345;51.136;16.886;2023-05-09T09:41:34;30.70;28.10
6956;DHT22;50345;51.136;16.886;2023-05-09T09:46:49;31.80;27.00
6956;DHT22;50345;51.136;16.886;2023-05-09T09:49:24;31.60;26.90
6956;DHT22;50345;51.136;16.886;2023-05-09T09:51:57;31.70;26.60
6956;DHT22;50345;51.136;16.886;2023-05-09T09:54:27;31.90;26.50
6956;DHT22;50345;51.136;16.886;2023-05-09T09:56:52;32.20;25.60
6956;DHT22;50345;51.136;16.886;2023-05-09T09:59:28;32.70;25.00
6956;DHT22;50345;51.136;16.886;2023-05-09T10:04:22;33.50;25.40
6956;DHT22;50345;51.136;16.886;2023-05-09T10:06:58;33.80;24.80
6956;DHT22;50345;51.136;16.886;2023-05-09T10:09:26;33.60;24.10
6956;DHT22;50345;51.136;16.886;2023-05-09T10:11:53;32.60;24.40
6956;DHT22;50345;51.136;16.886;2023-05-09T10:14:24;31.70;24.90
6956;DHT22;50345;51.136;16.886;2023-05-09T10:16:53;31.40;25.90
6956;DHT22;50345;51.136;16.886;2023-05-09T10:19:20;30.90;26.00
6956;DHT22;50345;51.136;16.886;2023-05-09T10:22:03;30.00;26.50
6956;DHT22;50345;51.136;16.886;2023-05-09T10:27:26;29.00;27.30
6956;DHT22;50345;51.136;16.886;2023-05-09T10:30:02;28.30;28.60
6956;DHT22;50345;51.136;16.886;2023-05-09T10:32:51;28.20;28.00
6956;DHT22;50345;51.136;16.886;2023-05-09T10:35:17;28.20;27.70
6956;DHT22;50345;51.136;16.886;2023-05-09T10:37:45;28.30;28.30
6956;DHT22;50345;51.136;16.886;2023-05-09T10:40:11;28.90;27.50
6956;DHT22;50345;51.136;16.886;2023-05-09T10:42:43;29.50;26.90
6956;DHT22;50345;51.136;16.886;2023-05-09T10:45:10;30.00;25.90
6956;DHT22;50345;51.136;16.886;2023-05-09T10:47:37;30.40;26.00
6956;DHT22;50345;51.136;16.886;2023-05-09T10:50:07;31.80;25.00
6956;DHT22;50345;51.136;16.886;2023-05-09T10:52:33;31.80;25.50
6956;DHT22;50345;51.136;16.886;2023-05-09T10:55:00;31.90;24.90
6956;DHT22;50345;51.136;16.886;2023-05-09T10:57:30;32.00;24.70
6956;DHT22;50345;51.136;16.886;2023-05-09T10:59:57;32.00;24.60
6956;DHT22;50345;51.136;16.886;2023-05-09T11:02:23;32.40;24.50
6956;DHT22;50345;51.136;16.886;2023-05-09T11:05:17;32.40;24.90
6956;DHT22;50345;51.136;16.886;2023-05-09T11:07:43;31.90;24.70
6956;DHT22;50345;51.136;16.886;2023-05-09T11:10:16;31.60;25.30
6956;DHT22;50345;51.136;16.886;2023-05-09T11:12:56;31.70;25.10
6956;DHT22;50345;51.136;16.886;2023-05-09T11:15:23;32.20;25.30
6956;DHT22;50345;51.136;16.886;2023-05-09T11:18:09;32.20;24.40
6956;DHT22;50345;51.136;16.886;2023-05-09T11:20:35;31.50;24.30
6956;DHT22;50345;51.136;16.886;2023-05-09T11:23:08;31.30;24.70
6956;DHT22;50345;51.136;16.886;2023-05-09T11:25:37;31.00;25.40
6956;DHT22;50345;51.136;16.886;2023-05-09T11:28:03;31.30;25.60
6956;DHT22;50345;51.136;16.886;2023-05-09T11:30:42;31.90;25.10
6956;DHT22;50345;51.136;16.886;2023-05-09T11:33:21;32.20;24.60
6956;DHT22;50345;51.136;16.886;2023-05-09T11:36:17;31.70;25.20
6956;DHT22;50345;51.136;16.886;2023-05-09T11:38:45;31.50;24.70
6956;DHT22;50345;51.136;16.886;2023-05-09T11:41:11;31.80;25.20
6956;DHT22;50345;51.136;16.886;2023-05-09T11:43:37;31.80;24.70
6956;DHT22;50345;51.136;16.886;2023-05-09T11:46:04;31.60;25.40
6956;DHT22;50345;51.136;16.886;2023-05-09T11:48:30;31.80;25.70
6956;DHT22;50345;51.136;16.886;2023-05-09T11:50:56;32.10;25.90
6956;DHT22;50345;51.136;16.886;2023-05-09T11:53:21;32.50;24.70
6956;DHT22;50345;51.136;16.886;2023-05-09T11:55:47;32.60;25.10
6956;DHT22;50345;51.136;16.886;2023-05-09T11:58:13;32.70;24.50
6956;DHT22;50345;51.136;16.886;2023-05-09T12:00:45;32.60;24.20
6956;DHT22;50345;51.136;16.886;2023-05-09T12:03:11;32.20;23.90
6956;DHT22;50345;51.136;16.886;2023-05-09T12:05:37;31.60;24.50
6956;DHT22;50345;51.136;16.886;2023-05-09T12:08:07;31.40;25.20
6956;DHT22;50345;51.136;16.886;2023-05-09T12:10:38;31.40;24.70
6956;DHT22;50345;51.136;16.886;2023-05-09T12:13:04;31.50;24.80
6956;DHT22;50345;51.136;16.886;2023-05-09T12:15:35;31.60;24.70
6956;DHT22;50345;51.136;16.886;2023-05-09T12:18:07;31.90;25.10
6956;DHT22;50345;51.136;16.886;2023-05-09T12:20:47;32.30;24.30
6956;DHT22;50345;51.136;16.886;2023-05-09T12:23:15;32.10;24.00
6956;DHT22;50345;51.136;16.886;2023-05-09T12:26:07;31.60;23.80
6956;DHT22;50345;51.136;16.886;2023-05-09T12:28:34;31.30;24.10
6956;DHT22;50345;51.136;16.886;2023-05-09T12:31:00;31.70;24.60
6956;DHT22;50345;51.136;16.886;2023-05-09T12:33:26;31.90;24.20
6956;DHT22;50345;51.136;16.886;2023-05-09T12:36:07;31.80;24.40
6956;DHT22;50345;51.136;16.886;2023-05-09T12:38:32;31.80;24.30
6956;DHT22;50345;51.136;16.886;2023-05-09T12:41:00;31.60;24.90
6956;DHT22;50345;51.136;16.886;2023-05-09T12:43:26;31.50;24.40
6956;DHT22;50345;51.136;16.886;2023-05-09T12:45:53;31.10;24.20
6956;DHT22;50345;51.136;16.886;2023-05-09T12:48:21;31.00;24.80
6956;DHT22;50345;51.136;16.886;2023-05-09T12:50:48;31.50;24.00
6956;DHT22;50345;51.136;16.886;2023-05-09T12:53:23;31.70;24.00
6956;DHT22;50345;51.136;16.886;2023-05-09T12:55:48;32.50;23.20
6956;DHT22;50345;51.136;16.886;2023-05-09T12:58:14;32.50;23.60
6956;DHT22;50345;51.136;16.886;2023-05-09T13:00:41;32.60;23.70
6956;DHT22;50345;51.136;16.886;2023-05-09T13:03:19;32.50;24.00
6956;DHT22;50345;51.136;16.886;2023-05-09T13:05:56;32.20;24.10
6956;DHT22;50345;51.136;16.886;2023-05-09T13:08:22;32.20;24.10
6956;DHT22;50345;51.136;16.886;2023-05-09T13:10:48;32.00;23.80
6956;DHT22;50345;51.136;16.886;2023-05-09T13:13:17;32.10;23.70
6956;DHT22;50345;51.136;16.886;2023-05-09T13:15:44;32.50;23.70
6956;DHT22;50345;51.136;16.886;2023-05-09T13:18:10;32.40;24.10
6956;DHT22;50345;51.136;16.886;2023-05-09T13:20:36;32.90;23.50
6956;DHT22;50345;51.136;16.886;2023-05-09T13:23:01;32.90;23.40
6956;DHT22;50345;51.136;16.886;2023-05-09T13:25:27;32.50;23.30
6956;DHT22;50345;51.136;16.886;2023-05-09T13:27:53;32.40;23.60
6956;DHT22;50345;51.136;16.886;2023-05-09T13:30:19;33.10;23.00
6956;DHT22;50345;51.136;16.886;2023-05-09T13:32:44;33.00;23.40
6956;DHT22;50345;51.136;16.886;2023-05-09T13:35:12;33.10;23.00
6956;DHT22;50345;51.136;16.886;2023-05-09T13:37:37;33.30;23.30
6956;DHT22;50345;51.136;16.886;2023-05-09T13:40:03;33.60;22.80
6956;DHT22;50345;51.136;16.886;2023-05-09T13:42:29;33.70;23.10
6956;DHT22;50345;51.136;16.886;2023-05-09T13:44:55;33.60;23.20
6956;DHT22;50345;51.136;16.886;2023-05-09T13:47:21;34.00;23.00
6956;DHT22;50345;51.136;16.886;2023-05-09T13:49:46;34.30;22.90
6956;DHT22;50345;51.136;16.886;2023-05-09T13:52:12;35.00;22.00
6956;DHT22;50345;51.136;16.886;2023-05-09T13:54:39;34.70;21.50
6956;DHT22;50345;51.136;16.886;2023-05-09T13:57:05;34.00;22.40
6956;DHT22;50345;51.136;16.886;2023-05-09T13:59:32;33.40;22.80
6956;DHT22;50345;51.136;16.886;2023-05-09T14:01:59;32.70;22.60
6956;DHT22;50345;51.136;16.886;2023-05-09T14:04:25;32.60;23.00
6956;DHT22;50345;51.136;16.886;2023-05-09T14:06:52;32.40;23.30
6956;DHT22;50345;51.136;16.886;2023-05-09T14:09:17;32.30;23.60
6956;DHT22;50345;51.136;16.886;2023-05-09T14:11:43;32.50;23.30
6956;DHT22;50345;51.136;16.886;2023-05-09T14:14:09;32.70;23.10
6956;DHT22;50345;51.136;16.886;2023-05-09T14:16:35;32.70;23.30
6956;DHT22;50345;51.136;16.886;2023-05-09T14:19:00;32.90;23.00
6956;DHT22;50345;51.136;16.886;2023-05-09T14:21:26;33.00;23.00
6956;DHT22;50345;51.136;16.886;2023-05-09T14:23:51;33.50;23.10
6956;DHT22;50345;51.136;16.886;2023-05-09T14:26:17;34.10;22.80
6956;DHT22;50345;51.136;16.886;2023-05-09T14:28:43;34.00;22.80
6956;DHT22;50345;51.136;16.886;2023-05-09T14:31:09;33.80;23.30
6956;DHT22;50345;51.136;16.886;2023-05-09T14:33:34;34.20;22.90
6956;DHT22;50345;51.136;16.886;2023-05-09T14:36:01;34.10;23.20
6956;DHT22;50345;51.136;16.886;2023-05-09T14:38:27;34.00;22.20
6956;DHT22;50345;51.136;16.886;2023-05-09T14:40:54;33.40;22.60
6956;DHT22;50345;51.136;16.886;2023-05-09T14:43:20;33.30;23.30
6956;DHT22;50345;51.136;16.886;2023-05-09T14:45:46;33.70;23.40
6956;DHT22;50345;51.136;16.886;2023-05-09T14:48:12;34.30;23.10
6956;DHT22;50345;51.136;16.886;2023-05-09T14:50:38;34.40;22.80
6956;DHT22;50345;51.136;16.886;2023-05-09T14:53:03;34.40;22.60
6956;DHT22;50345;51.136;16.886;2023-05-09T14:55:29;34.20;22.20
6956;DHT22;50345;51.136;16.886;2023-05-09T14:57:56;34.40;22.40
6956;DHT22;50345;51.136;16.886;2023-05-09T15:00:22;34.40;22.30
6956;DHT22;50345;51.136;16.886;2023-05-09T15:02:48;34.10;22.50
6956;DHT22;50345;51.136;16.886;2023-05-09T15:05:14;34.00;23.00
6956;DHT22;50345;51.136;16.886;2023-05-09T15:07:41;34.30;22.70
6956;DHT22;50345;51.136;16.886;2023-05-09T15:10:06;33.60;22.20
6956;DHT22;50345;51.136;16.886;2023-05-09T15:12:32;33.20;22.50
6956;DHT22;50345;51.136;16.886;2023-05-09T15:17:39;33.10;23.50
6956;DHT22;50345;51.136;16.886;2023-05-09T15:20:05;33.10;23.30
6956;DHT22;50345;51.136;16.886;2023-05-09T15:22:31;32.80;23.30
6956;DHT22;50345;51.136;16.886;2023-05-09T15:24:58;32.50;23.50
6956;DHT22;50345;51.136;16.886;2023-05-09T15:27:24;32.30;24.00
6956;DHT22;50345;51.136;16.886;2023-05-09T15:29:50;32.10;23.90
6956;DHT22;50345;51.136;16.886;2023-05-09T15:32:16;32.00;23.80
6956;DHT22;50345;51.136;16.886;2023-05-09T15:34:41;31.50;23.90
6956;DHT22;50345;51.136;16.886;2023-05-09T15:37:07;31.50;24.30
6956;DHT22;50345;51.136;16.886;2023-05-09T15:39:33;30.80;24.40
6956;DHT22;50345;51.136;16.886;2023-05-09T15:41:59;30.50;25.30
6956;DHT22;50345;51.136;16.886;2023-05-09T15:44:25;30.20;25.00
6956;DHT22;50345;51.136;16.886;2023-05-09T15:46:51;30.20;25.20
6956;DHT22;50345;51.136;16.886;2023-05-09T15:49:17;30.10;24.90
6956;DHT22;50345;51.136;16.886;2023-05-09T15:51:43;30.00;25.00
6956;DHT22;50345;51.136;16.886;2023-05-09T15:54:08;30.00;25.30
6956;DHT22;50345;51.136;16.886;2023-05-09T15:56:34;29.90;25.20
6956;DHT22;50345;51.136;16.886;2023-05-09T15:59:00;29.30;25.30
6956;DHT22;50345;51.136;16.886;2023-05-09T16:01:25;29.30;25.70
6956;DHT22;50345;51.136;16.886;2023-05-09T16:03:51;29.00;25.80
6956;DHT22;50345;51.136;16.886;2023-05-09T16:06:16;28.40;25.30
6956;DHT22;50345;51.136;16.886;2023-05-09T16:08:42;28.20;25.50